createdAt,value
2017-01-14T00:00:10.596Z,0
2017-01-14T00:01:10.587Z,0
2017-01-14T00:02:10.565Z,0
2017-01-14T00:03:10.935Z,0
2017-01-14T00:04:10.919Z,0
2017-01-14T00:05:10.929Z,0
2017-01-14T00:06:10.913Z,0
2017-01-14T00:07:10.491Z,0
2017-01-14T00:08:10.468Z,0
2017-01-14T00:09:10.452Z,0
2017-01-14T00:10:10.435Z,0
2017-01-14T00:11:10.421Z,0
2017-01-14T00:12:10.404Z,0
2017-01-14T00:13:10.388Z,0
2017-01-14T00:14:10.763Z,0
2017-01-14T00:15:10.360Z,0
2017-01-14T00:16:10.340Z,0
2017-01-14T00:17:10.328Z,0
2017-01-14T00:18:10.309Z,0
2017-01-14T00:19:10.290Z,0
2017-01-14T00:20:10.279Z,0
2017-01-14T00:21:10.264Z,0
2017-01-14T00:22:10.244Z,0
2017-01-14T00:23:10.232Z,0
2017-01-14T00:24:10.214Z,0
2017-01-14T00:25:10.199Z,0
2017-01-14T00:26:10.180Z,0
2017-01-14T00:27:10.167Z,0
2017-01-14T00:28:10.151Z,0
2017-01-14T00:29:10.139Z,0
2017-01-14T00:30:10.117Z,0
2017-01-14T00:31:10.105Z,0
2017-01-14T00:32:10.470Z,0
2017-01-14T00:33:10.069Z,0
2017-01-14T00:34:10.051Z,0
2017-01-14T00:35:10.040Z,0
2017-01-14T00:36:10.023Z,0
2017-01-14T00:37:10.010Z,0
2017-01-14T00:38:09.986Z,0
2017-01-14T00:39:09.969Z,0
2017-01-14T00:40:10.344Z,0
2017-01-14T00:41:09.940Z,0
2017-01-14T00:42:09.927Z,0
2017-01-14T00:43:09.905Z,0
2017-01-14T00:44:09.892Z,0
2017-01-14T00:45:09.873Z,0
2017-01-14T00:46:09.860Z,0
2017-01-14T00:47:09.843Z,0
2017-01-14T00:48:09.833Z,0
2017-01-14T00:49:09.811Z,0
2017-01-14T00:50:09.796Z,0
2017-01-14T00:51:09.776Z,0
2017-01-14T00:52:09.767Z,0
2017-01-14T00:53:09.743Z,0
2017-01-14T00:54:10.517Z,0
2017-01-14T00:55:09.732Z,0
2017-01-14T00:56:09.696Z,0
2017-01-14T00:57:09.679Z,0
2017-01-14T00:58:09.694Z,0
2017-01-14T00:59:09.650Z,0
2017-01-14T01:00:09.637Z,0
2017-01-14T01:01:10.003Z,0
2017-01-14T01:02:09.597Z,0
2017-01-14T01:03:09.582Z,0
2017-01-14T01:04:09.567Z,0
2017-01-14T01:05:09.555Z,0
2017-01-14T01:06:09.540Z,0
2017-01-14T01:07:09.527Z,0
2017-01-14T01:08:09.897Z,0
2017-01-14T01:09:09.506Z,0
2017-01-14T01:10:09.476Z,0
2017-01-14T01:11:09.456Z,0
2017-01-14T01:12:09.828Z,0
2017-01-14T01:13:09.722Z,0
2017-01-14T01:14:09.404Z,0
2017-01-14T01:15:09.410Z,0
2017-01-14T01:16:09.372Z,0
2017-01-14T01:17:09.356Z,0
2017-01-14T01:18:09.344Z,0
2017-01-14T01:19:09.325Z,0
2017-01-14T01:20:09.310Z,0
2017-01-14T01:21:09.291Z,0
2017-01-14T01:22:09.301Z,0
2017-01-14T01:23:09.259Z,0
2017-01-14T01:24:09.254Z,0
2017-01-14T01:25:09.227Z,0
2017-01-14T01:26:09.212Z,0
2017-01-14T01:27:09.590Z,0
2017-01-14T01:28:09.177Z,0
2017-01-14T01:29:09.166Z,0
2017-01-14T01:30:09.147Z,0
2017-01-14T01:31:09.130Z,0
2017-01-14T01:32:09.124Z,0
2017-01-14T01:33:09.483Z,0
2017-01-14T01:34:09.078Z,0
2017-01-14T01:35:09.070Z,0
2017-01-14T01:36:09.069Z,0
2017-01-14T01:37:09.032Z,0
2017-01-14T01:38:09.014Z,0
2017-01-14T01:39:09.000Z,0
2017-01-14T01:40:08.978Z,0
2017-01-14T01:41:08.967Z,0
2017-01-14T01:42:08.948Z,0
2017-01-14T01:43:08.930Z,0
2017-01-14T01:44:08.918Z,0
2017-01-14T01:45:08.905Z,0
2017-01-14T01:46:09.269Z,0
2017-01-14T01:47:08.868Z,0
2017-01-14T01:48:08.852Z,0
2017-01-14T01:49:08.859Z,0
2017-01-14T01:50:08.819Z,0
2017-01-14T01:51:08.801Z,0
2017-01-14T01:52:08.781Z,0
2017-01-14T01:53:08.771Z,0
2017-01-14T01:54:08.750Z,0
2017-01-14T01:55:08.739Z,0
2017-01-14T01:56:08.720Z,0
2017-01-14T01:57:08.705Z,0
2017-01-14T01:58:08.684Z,0
2017-01-14T01:59:08.672Z,0
2017-01-14T02:00:08.651Z,0
2017-01-14T02:01:08.634Z,0
2017-01-14T02:02:08.644Z,0
2017-01-14T02:03:08.636Z,0
2017-01-14T02:04:08.588Z,0
2017-01-14T02:05:08.570Z,0
2017-01-14T02:06:08.560Z,0
2017-01-14T02:07:08.545Z,0
2017-01-14T02:08:08.522Z,0
2017-01-14T02:09:08.504Z,0
2017-01-14T02:10:08.500Z,0
2017-01-14T02:11:08.470Z,0
2017-01-14T02:12:08.458Z,0
2017-01-14T02:13:08.440Z,0
2017-01-14T02:14:08.804Z,0
2017-01-14T02:15:08.408Z,0
2017-01-14T02:16:08.391Z,0
2017-01-14T02:17:08.373Z,0
2017-01-14T02:18:08.357Z,0
2017-01-14T02:19:08.341Z,0
2017-01-14T02:20:08.327Z,0
2017-01-14T02:21:08.305Z,0
2017-01-14T02:22:08.295Z,0
2017-01-14T02:23:08.278Z,0
2017-01-14T02:24:08.261Z,0
2017-01-14T02:25:08.259Z,0
2017-01-14T02:26:08.227Z,0
2017-01-14T02:27:08.208Z,0
2017-01-14T02:28:08.188Z,0
2017-01-14T02:29:08.175Z,0
2017-01-14T02:30:08.158Z,0
2017-01-14T02:31:08.142Z,0
2017-01-14T02:32:08.123Z,0
2017-01-14T02:33:08.108Z,0
2017-01-14T02:34:08.090Z,0
2017-01-14T02:35:08.077Z,0
2017-01-14T02:36:08.060Z,0
2017-01-14T02:37:08.046Z,0
2017-01-14T02:38:08.027Z,0
2017-01-14T02:39:08.012Z,0
2017-01-14T02:40:07.995Z,0
2017-01-14T02:41:07.975Z,0
2017-01-14T02:42:07.958Z,0
2017-01-14T02:43:07.941Z,0
2017-01-14T02:44:07.928Z,0
2017-01-14T02:45:07.913Z,0
2017-01-14T02:46:07.891Z,0
2017-01-14T02:47:07.874Z,0
2017-01-14T02:48:08.265Z,0
2017-01-14T02:49:07.843Z,0
2017-01-14T02:50:07.974Z,0
2017-01-14T02:51:07.862Z,0
2017-01-14T02:52:07.841Z,0
2017-01-14T02:53:07.979Z,0
2017-01-14T02:54:07.762Z,0
2017-01-14T02:55:07.745Z,0
2017-01-14T02:56:07.726Z,0
2017-01-14T02:57:07.708Z,0
2017-01-14T02:58:07.693Z,0
2017-01-14T02:59:07.680Z,0
2017-01-14T03:00:07.660Z,0
2017-01-14T03:01:07.650Z,0
2017-01-14T03:02:07.627Z,0
2017-01-14T03:03:07.612Z,0
2017-01-14T03:04:07.596Z,0
2017-01-14T03:05:07.575Z,0
2017-01-14T03:06:07.562Z,0
2017-01-14T03:07:07.933Z,0
2017-01-14T03:08:07.534Z,0
2017-01-14T03:09:07.510Z,0
2017-01-14T03:10:07.885Z,0
2017-01-14T03:11:07.480Z,0
2017-01-14T03:12:07.467Z,0
2017-01-14T03:13:07.442Z,0
2017-01-14T03:14:07.425Z,0
2017-01-14T03:15:07.409Z,0
2017-01-14T03:16:07.393Z,0
2017-01-14T03:17:07.404Z,0
2017-01-14T03:18:07.361Z,0
2017-01-14T03:19:07.349Z,0
2017-01-14T03:20:07.326Z,0
2017-01-14T03:21:07.310Z,0
2017-01-14T03:22:07.296Z,0
2017-01-14T03:23:07.664Z,0
2017-01-14T03:24:07.263Z,0
2017-01-14T03:25:07.244Z,0
2017-01-14T03:26:07.223Z,0
2017-01-14T03:27:07.214Z,0
2017-01-14T03:28:07.191Z,0
2017-01-14T03:29:07.177Z,0
2017-01-14T03:30:07.517Z,0
2017-01-14T03:31:07.143Z,0
2017-01-14T03:32:07.123Z,0
2017-01-14T03:33:07.111Z,0
2017-01-14T03:34:07.094Z,0
2017-01-14T03:35:07.080Z,0
2017-01-14T03:36:07.057Z,0
2017-01-14T03:37:07.040Z,0
2017-01-14T03:38:07.024Z,0
2017-01-14T03:39:07.013Z,0
2017-01-14T03:40:06.991Z,0
2017-01-14T03:41:06.973Z,0
2017-01-14T03:42:06.957Z,0
2017-01-14T03:43:07.331Z,0
2017-01-14T03:44:06.931Z,0
2017-01-14T03:45:06.906Z,0
2017-01-14T03:46:06.889Z,0
2017-01-14T03:47:06.876Z,0
2017-01-14T03:48:06.857Z,0
2017-01-14T03:49:06.840Z,0
2017-01-14T03:50:06.825Z,0
2017-01-14T03:51:06.824Z,0
2017-01-14T03:52:06.793Z,0
2017-01-14T03:53:06.775Z,0
2017-01-14T03:54:06.756Z,0
2017-01-14T03:55:06.738Z,0
2017-01-14T03:56:06.724Z,0
2017-01-14T03:57:06.707Z,0
2017-01-14T03:58:06.714Z,0
2017-01-14T03:59:06.675Z,0
2017-01-14T04:00:06.662Z,0
2017-01-14T04:01:06.644Z,0
2017-01-14T04:02:06.625Z,0
2017-01-14T04:03:06.611Z,0
2017-01-14T04:04:06.591Z,0
2017-01-14T04:05:06.582Z,0
2017-01-14T04:06:06.555Z,0
2017-01-14T04:07:06.542Z,0
2017-01-14T04:08:06.524Z,0
2017-01-14T04:09:06.512Z,0
2017-01-14T04:10:06.498Z,0
2017-01-14T04:11:06.476Z,0
2017-01-14T04:12:06.459Z,0
2017-01-14T04:13:06.447Z,0
2017-01-14T04:14:06.427Z,0
2017-01-14T04:15:06.410Z,0
2017-01-14T04:16:06.396Z,0
2017-01-14T04:17:06.381Z,0
2017-01-14T04:18:06.364Z,0
2017-01-14T04:19:06.346Z,0
2017-01-14T04:20:06.330Z,0
2017-01-14T04:21:06.317Z,0
2017-01-14T04:22:06.298Z,0
2017-01-14T04:23:06.284Z,0
2017-01-14T04:24:06.269Z,0
2017-01-14T04:25:06.252Z,0
2017-01-14T04:26:06.239Z,0
2017-01-14T04:27:06.219Z,0
2017-01-14T04:28:06.206Z,0
2017-01-14T04:29:06.186Z,0
2017-01-14T04:30:06.174Z,0
2017-01-14T04:31:06.157Z,0
2017-01-14T04:32:06.140Z,0
2017-01-14T04:33:06.128Z,0
2017-01-14T04:34:06.112Z,0
2017-01-14T04:35:06.093Z,0
2017-01-14T04:36:06.081Z,0
2017-01-14T04:37:06.062Z,0
2017-01-14T04:38:06.054Z,0
2017-01-14T04:39:06.037Z,0
2017-01-14T04:40:06.018Z,0
2017-01-14T04:41:06.000Z,0
2017-01-14T04:42:05.987Z,0
2017-01-14T04:43:05.976Z,0
2017-01-14T04:44:05.955Z,0
2017-01-14T04:45:05.943Z,0
2017-01-14T04:46:05.926Z,0
2017-01-14T04:47:05.911Z,0
2017-01-14T04:48:05.894Z,0
2017-01-14T04:49:05.882Z,0
2017-01-14T04:50:05.870Z,0
2017-01-14T04:51:05.848Z,0
2017-01-14T04:52:05.833Z,0
2017-01-14T04:53:05.814Z,0
2017-01-14T04:54:05.804Z,0
2017-01-14T04:55:05.788Z,0
2017-01-14T04:56:05.774Z,0
2017-01-14T04:57:05.755Z,0
2017-01-14T04:58:05.742Z,0
2017-01-14T04:59:05.728Z,0
2017-01-14T05:00:05.710Z,0
2017-01-14T05:01:05.698Z,0
2017-01-14T05:02:05.683Z,0
2017-01-14T05:03:05.669Z,0
2017-01-14T05:04:05.652Z,0
2017-01-14T05:05:05.639Z,0
2017-01-14T05:06:05.620Z,0
2017-01-14T05:07:05.613Z,0
2017-01-14T05:08:05.591Z,0
2017-01-14T05:09:05.608Z,0
2017-01-14T05:10:05.566Z,0
2017-01-14T05:11:05.574Z,0
2017-01-14T05:12:05.534Z,0
2017-01-14T05:13:05.518Z,0
2017-01-14T05:14:05.503Z,0
2017-01-14T05:15:05.490Z,0
2017-01-14T05:16:05.472Z,0
2017-01-14T05:17:05.461Z,0
2017-01-14T05:18:05.446Z,0
2017-01-14T05:19:05.435Z,0
2017-01-14T05:20:05.416Z,0
2017-01-14T05:21:05.399Z,0
2017-01-14T05:22:05.387Z,0
2017-01-14T05:23:05.373Z,0
2017-01-14T05:24:05.359Z,0
2017-01-14T05:25:05.353Z,0
2017-01-14T05:26:05.337Z,0
2017-01-14T05:27:05.311Z,0
2017-01-14T05:28:05.301Z,0
2017-01-14T05:29:05.287Z,0
2017-01-14T05:30:05.268Z,0
2017-01-14T05:31:05.259Z,0
2017-01-14T05:32:05.239Z,0
2017-01-14T05:33:05.228Z,0
2017-01-14T05:34:05.214Z,0
2017-01-14T05:35:05.196Z,0
2017-01-14T05:36:05.184Z,0
2017-01-14T05:37:05.170Z,0
2017-01-14T05:38:05.156Z,0
2017-01-14T05:39:05.143Z,0
2017-01-14T05:40:05.128Z,0
2017-01-14T05:41:05.117Z,0
2017-01-14T05:42:05.096Z,0
2017-01-14T05:43:05.112Z,0
2017-01-14T05:44:05.064Z,0
2017-01-14T05:45:05.055Z,0
2017-01-14T05:46:05.063Z,0
2017-01-14T05:47:05.028Z,0
2017-01-14T05:48:05.009Z,0
2017-01-14T05:49:04.995Z,0
2017-01-14T05:50:04.980Z,0
2017-01-14T05:51:04.969Z,0
2017-01-14T05:52:04.955Z,0
2017-01-14T05:53:04.940Z,0
2017-01-14T05:54:04.923Z,0
2017-01-14T05:55:04.907Z,0
2017-01-14T05:56:04.898Z,0
2017-01-14T05:57:04.879Z,0
2017-01-14T05:58:04.866Z,0
2017-01-14T05:59:05.241Z,0
2017-01-14T06:00:04.838Z,0
2017-01-14T06:01:04.824Z,0
2017-01-14T06:02:04.810Z,0
2017-01-14T06:03:04.798Z,0
2017-01-14T06:04:04.784Z,0
2017-01-14T06:05:04.768Z,0
2017-01-14T06:06:04.756Z,0
2017-01-14T06:07:04.741Z,0
2017-01-14T06:08:04.723Z,0
2017-01-14T06:09:04.712Z,0
2017-01-14T06:10:04.696Z,0
2017-01-14T06:11:04.687Z,0
2017-01-14T06:12:04.668Z,0
2017-01-14T06:13:04.654Z,0
2017-01-14T06:14:04.651Z,0
2017-01-14T06:15:04.626Z,0
2017-01-14T06:16:04.612Z,0
2017-01-14T06:17:04.601Z,0
2017-01-14T06:18:04.581Z,0
2017-01-14T06:19:04.598Z,0
2017-01-14T06:20:04.553Z,0
2017-01-14T06:21:04.542Z,0
2017-01-14T06:22:04.527Z,0
2017-01-14T06:23:04.895Z,0
2017-01-14T06:24:04.499Z,0
2017-01-14T06:25:04.484Z,0
2017-01-14T06:26:04.467Z,0
2017-01-14T06:27:04.455Z,0
2017-01-14T06:28:04.440Z,0
2017-01-14T06:29:04.427Z,0
2017-01-14T06:30:04.414Z,0
2017-01-14T06:31:04.396Z,0
2017-01-14T06:32:04.387Z,0
2017-01-14T06:33:04.365Z,0
2017-01-14T06:34:04.356Z,0
2017-01-14T06:35:04.341Z,0
2017-01-14T06:36:04.325Z,0
2017-01-14T06:37:04.312Z,0
2017-01-14T06:38:04.294Z,4
2017-01-14T06:39:04.279Z,4
2017-01-14T06:40:04.266Z,0
2017-01-14T06:41:04.254Z,4
2017-01-14T06:42:04.237Z,4
2017-01-14T06:43:04.223Z,4
2017-01-14T06:44:04.207Z,4
2017-01-14T06:45:04.195Z,4
2017-01-14T06:46:04.180Z,4
2017-01-14T06:47:04.162Z,8
2017-01-14T06:48:04.151Z,8
2017-01-14T06:49:04.143Z,8
2017-01-14T06:50:04.123Z,12
2017-01-14T06:51:04.104Z,12
2017-01-14T06:52:04.091Z,12
2017-01-14T06:53:04.078Z,16
2017-01-14T06:54:04.065Z,16
2017-01-14T06:55:04.050Z,24
2017-01-14T06:56:04.064Z,24
2017-01-14T06:57:04.021Z,24
2017-01-14T06:58:04.005Z,32
2017-01-14T06:59:03.991Z,36
2017-01-14T07:00:03.976Z,36
2017-01-14T07:01:03.960Z,44
2017-01-14T07:02:03.947Z,52
2017-01-14T07:03:03.943Z,56
2017-01-14T07:04:03.919Z,60
2017-01-14T07:05:03.908Z,72
2017-01-14T07:06:03.890Z,80
2017-01-14T07:07:03.882Z,84
2017-01-14T07:08:03.860Z,88
2017-01-14T07:09:03.847Z,100
2017-01-14T07:10:03.843Z,104
2017-01-14T07:11:03.818Z,116
2017-01-14T07:12:03.801Z,124
2017-01-14T07:13:03.796Z,132
2017-01-14T07:14:04.158Z,136
2017-01-14T07:15:03.761Z,136
2017-01-14T07:16:03.742Z,140
2017-01-14T07:17:03.733Z,168
2017-01-14T07:18:04.103Z,196
2017-01-14T07:19:03.702Z,212
2017-01-14T07:20:03.684Z,228
2017-01-14T07:21:03.671Z,244
2017-01-14T07:22:03.657Z,248
2017-01-14T07:23:03.645Z,260
2017-01-14T07:24:03.627Z,268
2017-01-14T07:25:03.615Z,276
2017-01-14T07:26:03.606Z,292
2017-01-14T07:27:03.972Z,308
2017-01-14T07:28:03.582Z,320
2017-01-14T07:29:03.559Z,336
2017-01-14T07:30:03.540Z,360
2017-01-14T07:31:03.530Z,408
2017-01-14T07:32:03.513Z,480
2017-01-14T07:33:03.504Z,544
2017-01-14T07:34:03.489Z,572
2017-01-14T07:35:03.471Z,596
2017-01-14T07:36:03.461Z,652
2017-01-14T07:37:03.450Z,704
2017-01-14T07:38:03.456Z,756
2017-01-14T07:39:03.414Z,796
2017-01-14T07:40:03.406Z,808
2017-01-14T07:41:03.390Z,792
2017-01-14T07:42:03.373Z,788
2017-01-14T07:43:03.359Z,748
2017-01-14T07:44:03.345Z,732
2017-01-14T07:45:03.331Z,768
2017-01-14T07:46:03.315Z,864
2017-01-14T07:47:03.300Z,876
2017-01-14T07:48:03.290Z,852
2017-01-14T07:49:03.271Z,884
2017-01-14T07:50:03.276Z,936
2017-01-14T07:51:03.246Z,992
2017-01-14T07:52:03.230Z,1012
2017-01-14T07:53:03.219Z,1052
2017-01-14T07:54:03.206Z,1092
2017-01-14T07:55:03.195Z,1144
2017-01-14T07:56:03.171Z,1248
2017-01-14T07:57:03.159Z,1332
2017-01-14T07:58:03.144Z,1404
2017-01-14T07:59:03.137Z,1432
2017-01-14T08:00:03.116Z,1504
2017-01-14T08:01:03.102Z,1680
2017-01-14T08:02:03.088Z,1908
2017-01-14T08:03:03.076Z,2100
2017-01-14T08:04:03.060Z,2236
2017-01-14T08:05:03.048Z,2400
2017-01-14T08:06:03.034Z,2576
2017-01-14T08:07:03.017Z,2660
2017-01-14T08:08:03.027Z,2780
2017-01-14T08:09:02.997Z,2756
2017-01-14T08:10:02.977Z,2704
2017-01-14T08:11:02.966Z,2628
2017-01-14T08:12:02.951Z,2640
2017-01-14T08:13:02.937Z,2700
2017-01-14T08:14:02.924Z,2708
2017-01-14T08:15:02.909Z,2780
2017-01-14T08:16:02.894Z,2860
2017-01-14T08:17:02.884Z,2976
2017-01-14T08:18:03.254Z,3040
2017-01-14T08:19:02.860Z,3120
2017-01-14T08:20:02.841Z,3376
2017-01-14T08:21:02.832Z,3568
2017-01-14T08:22:02.820Z,3636
2017-01-14T08:23:02.801Z,3304
2017-01-14T08:24:02.790Z,2980
2017-01-14T08:25:02.775Z,2752
2017-01-14T08:26:02.764Z,2616
2017-01-14T08:27:02.747Z,2532
2017-01-14T08:28:02.737Z,2484
2017-01-14T08:29:02.755Z,2492
2017-01-14T08:30:02.710Z,2604
2017-01-14T08:31:03.083Z,2728
2017-01-14T08:32:02.687Z,2800
2017-01-14T08:33:02.675Z,2880
2017-01-14T08:34:02.657Z,2996
2017-01-14T08:35:03.037Z,3104
2017-01-14T08:36:02.632Z,3056
2017-01-14T08:37:02.618Z,2940
2017-01-14T08:38:02.992Z,2872
2017-01-14T08:39:02.594Z,2776
2017-01-14T08:40:02.882Z,2784
2017-01-14T08:41:02.572Z,2904
2017-01-14T08:42:02.557Z,2956
2017-01-14T08:43:02.544Z,3076
2017-01-14T08:44:02.529Z,3208
2017-01-14T08:45:02.522Z,3340
2017-01-14T08:46:02.506Z,3448
2017-01-14T08:47:02.491Z,3376
2017-01-14T08:48:02.480Z,3316
2017-01-14T08:49:02.467Z,3348
2017-01-14T08:50:02.454Z,3488
2017-01-14T08:51:02.827Z,3864
2017-01-14T08:52:02.427Z,4252
2017-01-14T08:53:02.419Z,4520
2017-01-14T08:54:02.403Z,4504
2017-01-14T08:55:02.388Z,4260
2017-01-14T08:56:02.378Z,4140
2017-01-14T08:57:02.364Z,3984
2017-01-14T08:58:02.348Z,3672
2017-01-14T08:59:02.338Z,3456
2017-01-14T09:00:02.714Z,3428
2017-01-14T09:01:02.340Z,3540
2017-01-14T09:02:02.301Z,3580
2017-01-14T09:03:02.291Z,3276
2017-01-14T09:04:02.275Z,2620
2017-01-14T09:05:02.264Z,2296
2017-01-14T09:06:02.250Z,2232
2017-01-14T09:07:02.238Z,2300
2017-01-14T09:08:02.224Z,2596
2017-01-14T09:09:02.213Z,3064
2017-01-14T09:10:02.499Z,3624
2017-01-14T09:11:02.192Z,3844
2017-01-14T09:12:02.179Z,3672
2017-01-14T09:13:02.160Z,3464
2017-01-14T09:14:02.155Z,3300
2017-01-14T09:15:02.142Z,3344
2017-01-14T09:16:02.123Z,3720
2017-01-14T09:17:02.111Z,4708
2017-01-14T09:18:02.101Z,5444
2017-01-14T09:19:02.088Z,5448
2017-01-14T09:20:02.078Z,4932
2017-01-14T09:21:02.067Z,4704
2017-01-14T09:22:02.087Z,5100
2017-01-14T09:23:02.035Z,5740
2017-01-14T09:24:02.021Z,5812
2017-01-14T09:25:02.042Z,5436
2017-01-14T09:26:02.385Z,5004
2017-01-14T09:27:01.988Z,4948
2017-01-14T09:28:01.976Z,5004
2017-01-14T09:29:02.347Z,4728
2017-01-14T09:30:01.952Z,4660
2017-01-14T09:31:01.937Z,4600
2017-01-14T09:32:01.927Z,4660
2017-01-14T09:33:01.913Z,4744
2017-01-14T09:34:01.904Z,4644
2017-01-14T09:35:01.896Z,4740
2017-01-14T09:36:01.880Z,4776
2017-01-14T09:37:01.862Z,4716
2017-01-14T09:38:01.851Z,4624
2017-01-14T09:39:01.841Z,4616
2017-01-14T09:40:01.833Z,4860
2017-01-14T09:41:01.817Z,4864
2017-01-14T09:42:01.808Z,4976
2017-01-14T09:43:01.790Z,5260
2017-01-14T09:44:01.794Z,5284
2017-01-14T09:45:01.766Z,4944
2017-01-14T09:46:01.755Z,4008
2017-01-14T09:47:01.747Z,3480
2017-01-14T09:48:01.735Z,3060
2017-01-14T09:49:01.727Z,2608
2017-01-14T09:50:01.713Z,2464
2017-01-14T09:51:01.697Z,2360
2017-01-14T09:52:01.687Z,2292
2017-01-14T09:53:01.679Z,2344
2017-01-14T09:54:01.666Z,2504
2017-01-14T09:55:01.651Z,2472
2017-01-14T09:56:01.642Z,2448
2017-01-14T09:57:01.625Z,2496
2017-01-14T09:58:01.618Z,2912
2017-01-14T09:59:01.604Z,3128
2017-01-14T10:00:01.593Z,2980
2017-01-14T10:01:01.580Z,2676
2017-01-14T10:02:01.567Z,2704
2017-01-14T10:03:01.562Z,2852
2017-01-14T10:04:01.548Z,3372
2017-01-14T10:05:01.532Z,3844
2017-01-14T10:06:01.525Z,4108
2017-01-14T10:07:01.510Z,4372
2017-01-14T10:08:01.496Z,4288
2017-01-14T10:09:01.485Z,4152
2017-01-14T10:10:01.475Z,4108
2017-01-14T10:11:01.459Z,3924
2017-01-14T10:12:01.447Z,4032
2017-01-14T10:13:01.434Z,4412
2017-01-14T10:14:01.426Z,4880
2017-01-14T10:15:01.408Z,5156
2017-01-14T10:16:01.425Z,5388
2017-01-14T10:17:01.385Z,5288
2017-01-14T10:18:01.373Z,4748
2017-01-14T10:19:01.361Z,4104
2017-01-14T10:20:01.348Z,3440
2017-01-14T10:21:01.721Z,3244
2017-01-14T10:22:01.331Z,3456
2017-01-14T10:23:01.313Z,3804
2017-01-14T10:24:01.299Z,4456
2017-01-14T10:25:01.678Z,5332
2017-01-14T10:26:01.271Z,6612
2017-01-14T10:27:01.272Z,7124
2017-01-14T10:28:01.635Z,6784
2017-01-14T10:29:01.237Z,5384
2017-01-14T10:30:01.226Z,3876
2017-01-14T10:31:01.214Z,3112
2017-01-14T10:32:01.211Z,3028
2017-01-14T10:33:01.188Z,3464
2017-01-14T10:34:01.175Z,3916
2017-01-14T10:35:01.163Z,4324
2017-01-14T10:36:01.155Z,4980
2017-01-14T10:37:01.140Z,4424
2017-01-14T10:38:01.124Z,3428
2017-01-14T10:39:01.119Z,2512
2017-01-14T10:40:01.103Z,1872
2017-01-14T10:41:01.090Z,1696
2017-01-14T10:42:01.075Z,1832
2017-01-14T10:43:01.067Z,2380
2017-01-14T10:44:01.054Z,2868
2017-01-14T10:45:01.040Z,3268
2017-01-14T10:46:01.030Z,2996
2017-01-14T10:47:01.018Z,2992
2017-01-14T10:48:01.004Z,2824
2017-01-14T10:49:00.993Z,2896
2017-01-14T10:50:00.980Z,3032
2017-01-14T10:51:00.968Z,3384
2017-01-14T10:52:00.955Z,3384
2017-01-14T10:53:00.942Z,3212
2017-01-14T10:54:01.321Z,3300
2017-01-14T10:55:00.928Z,3624
2017-01-14T10:56:00.906Z,3792
2017-01-14T10:57:00.892Z,3808
2017-01-14T10:58:00.877Z,3624
2017-01-14T10:59:00.868Z,3872
2017-01-14T11:00:00.854Z,4356
2017-01-14T11:01:00.847Z,4812
2017-01-14T11:02:00.837Z,5120
2017-01-14T11:03:00.827Z,5976
2017-01-14T11:04:00.809Z,7388
2017-01-14T11:05:00.793Z,7992
2017-01-14T11:06:00.784Z,7204
2017-01-14T11:07:00.776Z,6392
2017-01-14T11:08:00.759Z,5728
2017-01-14T11:09:01.148Z,4424
2017-01-14T11:10:00.734Z,3816
2017-01-14T11:11:00.724Z,3480
2017-01-14T11:12:00.720Z,3376
2017-01-14T11:13:00.731Z,3160
2017-01-14T11:14:00.685Z,3532
2017-01-14T11:15:00.674Z,4012
2017-01-14T11:16:00.663Z,4196
2017-01-14T11:17:00.655Z,4028
2017-01-14T11:18:00.633Z,3928
2017-01-14T11:19:00.627Z,4216
2017-01-14T11:20:00.620Z,4824
2017-01-14T11:21:00.601Z,4716
2017-01-14T11:22:00.592Z,4368
2017-01-14T11:23:00.576Z,4152
2017-01-14T11:24:00.564Z,3816
2017-01-14T11:25:00.556Z,3172
2017-01-14T11:26:00.541Z,2920
2017-01-14T11:27:00.913Z,3048
2017-01-14T11:28:00.524Z,3228
2017-01-14T11:29:00.535Z,3340
2017-01-14T11:30:00.519Z,3504
2017-01-14T11:31:00.482Z,3664
2017-01-14T11:32:00.468Z,3824
2017-01-14T11:33:00.462Z,3916
2017-01-14T11:34:00.832Z,4032
2017-01-14T11:35:00.432Z,3928
2017-01-14T11:36:00.420Z,3752
2017-01-14T11:37:00.409Z,3568
2017-01-14T11:38:00.396Z,3316
2017-01-14T11:39:00.383Z,3300
2017-01-14T11:40:00.380Z,3428
2017-01-14T11:41:00.363Z,3504
2017-01-14T11:42:00.355Z,3204
2017-01-14T11:43:00.335Z,2924
2017-01-14T11:44:00.326Z,2704
2017-01-14T11:45:00.312Z,2476
2017-01-14T11:46:00.300Z,2292
2017-01-14T11:47:00.291Z,2316
2017-01-14T11:48:00.285Z,2232
2017-01-14T11:49:00.277Z,2228
2017-01-14T11:50:00.251Z,2228
2017-01-14T11:51:00.240Z,2384
2017-01-14T11:52:00.236Z,2432
2017-01-14T11:53:00.632Z,2352
2017-01-14T11:54:00.211Z,2452
2017-01-14T11:55:00.209Z,2748
2017-01-14T11:56:00.180Z,2788
2017-01-14T11:57:00.170Z,2728
2017-01-14T11:58:00.550Z,2784
2017-01-14T11:59:00.189Z,3312
2017-01-14T12:00:00.137Z,3940
2017-01-14T12:01:00.506Z,4652
2017-01-14T12:02:00.110Z,4588
2017-01-14T12:03:00.129Z,3820
2017-01-14T12:04:00.123Z,3208
2017-01-14T12:05:00.075Z,3076
2017-01-14T12:06:00.064Z,3208
2017-01-14T12:07:00.049Z,3588
2017-01-14T12:08:00.035Z,3988
2017-01-14T12:09:00.028Z,3880
2017-01-14T12:10:00.017Z,3364
2017-01-14T12:11:00.005Z,3356
2017-01-14T12:11:59.991Z,3732
2017-01-14T12:13:00.013Z,3828
2017-01-14T12:13:59.967Z,3884
2017-01-14T12:14:59.952Z,4368
2017-01-14T12:15:59.971Z,4832
2017-01-14T12:16:59.931Z,5304
2017-01-14T12:17:59.918Z,5752
2017-01-14T12:18:59.904Z,5884
2017-01-14T12:19:59.893Z,6084
2017-01-14T12:20:59.885Z,6364
2017-01-14T12:21:59.898Z,6820
2017-01-14T12:22:59.859Z,6864
2017-01-14T12:23:59.851Z,6732
2017-01-14T12:24:59.836Z,6660
2017-01-14T12:25:59.824Z,5796
2017-01-14T12:26:59.810Z,4608
2017-01-14T12:27:59.799Z,4072
2017-01-14T12:28:59.790Z,3476
2017-01-14T12:29:59.776Z,2616
2017-01-14T12:30:59.772Z,2088
2017-01-14T12:31:59.753Z,1840
2017-01-14T12:33:00.044Z,1708
2017-01-14T12:33:59.729Z,1672
2017-01-14T12:34:59.719Z,1852
2017-01-14T12:35:59.703Z,1888
2017-01-14T12:36:59.694Z,1748
2017-01-14T12:37:59.683Z,1572
2017-01-14T12:38:59.668Z,1388
2017-01-14T12:39:59.660Z,1256
2017-01-14T12:40:59.645Z,1244
2017-01-14T12:41:59.635Z,1332
2017-01-14T12:42:59.628Z,1456
2017-01-14T12:44:00.039Z,1652
2017-01-14T12:44:59.595Z,1768
2017-01-14T12:45:59.601Z,2064
2017-01-14T12:46:59.579Z,2316
2017-01-14T12:47:59.564Z,2428
2017-01-14T12:48:59.550Z,2372
2017-01-14T12:49:59.536Z,2336
2017-01-14T12:50:59.529Z,2184
2017-01-14T12:51:59.513Z,1940
2017-01-14T12:52:59.502Z,1792
2017-01-14T12:53:59.485Z,1696
2017-01-14T12:54:59.868Z,1724
2017-01-14T12:55:59.477Z,1692
2017-01-14T12:56:59.447Z,1716
2017-01-14T12:57:59.452Z,1616
2017-01-14T12:58:59.430Z,1440
2017-01-14T12:59:59.412Z,1336
2017-01-14T13:00:59.791Z,1324
2017-01-14T13:01:59.396Z,1364
2017-01-14T13:02:59.379Z,1428
2017-01-14T13:03:59.364Z,1432
2017-01-14T13:04:59.743Z,1516
2017-01-14T13:05:59.344Z,1536
2017-01-14T13:06:59.330Z,1892
2017-01-14T13:07:59.707Z,1940
2017-01-14T13:08:59.302Z,2052
2017-01-14T13:09:59.316Z,2356
2017-01-14T13:10:59.281Z,2356
2017-01-14T13:11:59.265Z,2412
2017-01-14T13:12:59.252Z,2540
2017-01-14T13:13:59.242Z,2576
2017-01-14T13:14:59.622Z,2736
2017-01-14T13:15:59.215Z,2872
2017-01-14T13:16:59.202Z,3248
2017-01-14T13:17:59.188Z,3708
2017-01-14T13:18:59.172Z,4184
2017-01-14T13:19:59.165Z,4728
2017-01-14T13:20:59.149Z,5120
2017-01-14T13:21:59.139Z,4728
2017-01-14T13:22:59.122Z,4168
2017-01-14T13:23:59.115Z,3780
2017-01-14T13:24:59.096Z,3724
2017-01-14T13:25:59.085Z,4128
2017-01-14T13:26:59.075Z,4724
2017-01-14T13:27:59.059Z,5836
2017-01-14T13:28:59.050Z,6336
2017-01-14T13:29:59.042Z,6944
2017-01-14T13:30:59.032Z,7576
2017-01-14T13:31:59.013Z,7980
2017-01-14T13:32:59.001Z,7872
2017-01-14T13:33:58.990Z,7196
2017-01-14T13:34:58.979Z,6572
2017-01-14T13:35:59.350Z,6052
2017-01-14T13:36:58.947Z,5472
2017-01-14T13:37:58.940Z,5308
2017-01-14T13:38:58.927Z,4888
2017-01-14T13:39:58.911Z,4648
2017-01-14T13:40:58.939Z,4192
2017-01-14T13:41:58.895Z,3832
2017-01-14T13:42:58.885Z,3648
2017-01-14T13:43:58.872Z,3504
2017-01-14T13:44:58.858Z,3484
2017-01-14T13:45:58.841Z,3316
2017-01-14T13:46:59.606Z,3156
2017-01-14T13:47:58.818Z,3120
2017-01-14T13:48:58.814Z,3028
2017-01-14T13:49:59.179Z,3060
2017-01-14T13:50:58.778Z,3012
2017-01-14T13:51:58.767Z,2996
2017-01-14T13:52:59.145Z,2948
2017-01-14T13:53:59.130Z,2900
2017-01-14T13:54:58.735Z,2880
2017-01-14T13:55:58.720Z,2856
2017-01-14T13:56:58.715Z,2812
2017-01-14T13:57:58.697Z,2772
2017-01-14T13:58:58.686Z,2752
2017-01-14T13:59:58.675Z,2736
2017-01-14T14:00:58.658Z,2708
2017-01-14T14:01:58.644Z,2684